Stevens Point, WI

6:27 PM CDT on September 29, 2016 (GMT -0500)
Stevens Point Municipal

Weather History for KSTE - October, 2014

Change the Weather History Date:

Saturday, October 25, 2014

  Actual Average Record
Temperature  
Mean Temperature 52 °F -  
Max Temperature 59 °F 55 °F 77 °F (1963)
Min Temperature 43 °F 36 °F 17 °F (2006)
Degree Days  
Heating Degree Days 14    
Growing Degree Days 2 (Base 50)    
Moisture  
Dew Point 36 °F    
Average Humidity 58    
Maximum Humidity 97    
Minimum Humidity 30    
Precipitation  
Precipitation 0.04 in - - ()
Sea Level Pressure  
Sea Level Pressure 29.90 in    
Wind  
Wind Speed 9 mph (West)    
Max Wind Speed 22 mph    
Max Gust Speed 32 mph    
Visibility 9 miles    
Events      
Averages and records for this station are not official NWS values.
T = Trace of Precipitation, MM = Missing Value Source: NWS Daily Summary

Daily Weather History Graph

Daily Weather History Graph

Search for Another Location

Airport or City:

Trip Planner

Search our weather history database for the weather conditions in past years. The results will help you decide how hot, cold, wet, or windy it might be!

Date:

Astronomy

Oct. 25, 2014 Rise Set
Actual Time 7:26 AM CDT 5:57 PM CDT
Civil Twilight 6:56 AM CDT 6:27 PM CDT
Nautical Twilight 6:22 AM CDT 7:01 PM CDT
Astronomical Twilight 5:48 AM CDT 7:34 PM CDT
Moon 9:08 AM CDT (10/25) 7:16 PM CDT (10/25)
Length of Visible Light 11h 30m
Length of Day
10h 31m
Waxing Crescent, 3% of the Moon is Illuminated
Oct 25
Waxing Crescent
Oct 30
First Quarter
Nov 6
Full
Nov 14
Last Quarter
Nov 22
New

Hourly Weather History & Observations

Time (CDT) Temp. Windchill Dew Point Humidity Pressure Visibility Wind Dir Wind Speed Gust Speed Precip Events Conditions
12:15 AM 54.9 °F - 52.7 °F 92% 29.84 in 7.0 mi WSW 9.2 mph - N/A   Overcast
12:35 AM 54.9 °F - 52.7 °F 92% 29.85 in 7.0 mi West 9.2 mph 16.1 mph N/A   Overcast
12:55 AM 54.5 °F - 52.7 °F 94% 29.85 in 7.0 mi West 8.1 mph - N/A   Overcast
1:15 AM 54.5 °F - 52.7 °F 94% 29.85 in 5.0 mi WSW 5.8 mph - N/A   Overcast
1:35 AM 54.5 °F - 52.7 °F 94% 29.84 in 5.0 mi WSW 6.9 mph - N/A   Overcast
1:55 AM 54.1 °F - 52.7 °F 95% 29.85 in 5.0 mi WSW 8.1 mph - 0.01 in   Overcast
2:15 AM 54.0 °F - 52.7 °F 95% 29.84 in 4.0 mi WSW 9.2 mph - N/A   Overcast
2:35 AM 53.8 °F - 52.5 °F 95% 29.84 in 5.0 mi West 10.4 mph 16.1 mph N/A   Overcast
2:55 AM 53.2 °F - 51.8 °F 95% 29.85 in 5.0 mi West 10.4 mph 19.6 mph N/A   Overcast
3:15 AM 52.9 °F - 51.4 °F 95% 29.85 in 5.0 mi West 9.2 mph - N/A   Overcast
3:35 AM 52.2 °F - 50.9 °F 95% 29.85 in 5.0 mi West 6.9 mph - N/A   Mostly Cloudy
3:55 AM 51.6 °F - 50.7 °F 97% 29.85 in 4.0 mi West 5.8 mph - N/A   Mostly Cloudy
4:15 AM 51.1 °F - 50.2 °F 97% 29.85 in 5.0 mi West 6.9 mph - N/A   Scattered Clouds
4:35 AM 50.9 °F - 49.8 °F 96% 29.86 in 5.0 mi West 8.1 mph - N/A   Clear
4:55 AM 50.5 °F - 49.1 °F 95% 29.86 in 5.0 mi West 5.8 mph - N/A   Clear
5:15 AM 50.5 °F - 48.2 °F 92% 29.86 in 7.0 mi West 6.9 mph - N/A   Clear
5:35 AM 50.4 °F - 47.3 °F 89% 29.86 in 10.0 mi West 6.9 mph - N/A   Clear
5:55 AM 50.0 °F - 46.4 °F 87% 29.87 in 10.0 mi West 8.1 mph - N/A   Clear
6:15 AM 49.6 °F - 45.3 °F 85% 29.87 in 10.0 mi WNW 9.2 mph - N/A   Clear
6:35 AM 49.1 °F - 44.1 °F 83% 29.87 in 10.0 mi West 6.9 mph - N/A   Clear
6:55 AM 49.1 °F - 43.3 °F 81% 29.87 in 10.0 mi West 6.9 mph - 0.01 in   Clear
7:15 AM 48.2 °F - 42.3 °F 80% 29.88 in 10.0 mi West 5.8 mph - N/A   Clear
7:35 AM 48.2 °F - 41.7 °F 78% 29.88 in 10.0 mi West 5.8 mph - N/A   Clear
7:55 AM 48.2 °F - 41.0 °F 76% 29.89 in 10.0 mi West 6.9 mph - N/A   Clear
8:15 AM 48.4 °F - 40.5 °F 74% 29.89 in 10.0 mi West 6.9 mph - N/A   Clear
8:35 AM 49.1 °F - 39.9 °F 71% 29.89 in 10.0 mi West 9.2 mph - N/A   Clear
8:55 AM 50.0 °F - 39.2 °F 66% 29.90 in 10.0 mi West 9.2 mph - N/A   Clear
9:15 AM 50.9 °F - 38.5 °F 62% 29.90 in 10.0 mi West 9.2 mph - N/A   Clear
9:35 AM 52.3 °F - 37.6 °F 57% 29.90 in 10.0 mi West 11.5 mph 20.7 mph N/A   Clear
9:55 AM 53.1 °F - 35.1 °F 50% 29.90 in 10.0 mi WNW 11.5 mph 23.0 mph N/A   Clear
10:15 AM 54.0 °F - 34.3 °F 47% 29.91 in 10.0 mi West 12.7 mph 19.6 mph N/A   Clear
10:35 AM 54.5 °F - 33.4 °F 45% 29.90 in 10.0 mi WNW 10.4 mph 19.6 mph N/A   Clear
10:55 AM 55.0 °F - 32.4 °F 42% 29.91 in 10.0 mi WNW 15.0 mph 20.7 mph N/A   Clear
11:15 AM 56.1 °F - 32.2 °F 40% 29.91 in 10.0 mi WNW 10.4 mph 23.0 mph N/A   Clear
11:35 AM 56.5 °F - 31.5 °F 39% 29.91 in 10.0 mi WNW 16.1 mph 23.0 mph N/A   Clear
11:55 AM 57.2 °F - 30.4 °F 36% 29.90 in 10.0 mi NW 13.8 mph 27.6 mph N/A   Clear
12:15 PM 57.7 °F - 29.8 °F 35% 29.90 in 10.0 mi WNW 11.5 mph 18.4 mph N/A   Clear
12:35 PM 58.1 °F - 29.3 °F 33% 29.90 in 10.0 mi WNW 16.1 mph 23.0 mph 0.01 in   Clear
12:55 PM 58.1 °F - 30.2 °F 35% 29.90 in 10.0 mi West 15.0 mph 26.5 mph 0.01 in   Clear
1:15 PM 58.8 °F - 30.4 °F 34% 29.90 in 10.0 mi West 16.1 mph 24.2 mph N/A   Clear
1:35 PM 59.0 °F - 30.6 °F 34% 29.90 in 10.0 mi WNW 17.3 mph 24.2 mph N/A   Clear
1:55 PM 59.4 °F - 31.6 °F 35% 29.89 in 10.0 mi West 15.0 mph 20.7 mph N/A   Clear
2:15 PM 59.2 °F - 30.4 °F 34% 29.89 in 10.0 mi West 12.7 mph 25.3 mph N/A   Clear
2:35 PM 59.5 °F - 28.0 °F 30% 29.89 in 10.0 mi WNW 13.8 mph 27.6 mph N/A   Clear
2:55 PM 59.5 °F - 29.5 °F 32% 29.89 in 10.0 mi West 16.1 mph 27.6 mph N/A   Clear
3:15 PM 59.4 °F - 30.6 °F 34% 29.89 in 10.0 mi West 12.7 mph 24.2 mph N/A   Clear
3:35 PM 59.0 °F - 29.8 °F 33% 29.90 in 10.0 mi West 17.3 mph 21.9 mph N/A   Clear
3:55 PM 58.6 °F - 28.4 °F 32% 29.90 in 10.0 mi West 21.9 mph 32.2 mph N/A   Clear
4:15 PM 58.5 °F - 28.0 °F 31% 29.90 in 10.0 mi West 12.7 mph 27.6 mph N/A   Clear
4:35 PM 58.3 °F - 27.1 °F 30% 29.90 in 10.0 mi West 15.0 mph 27.6 mph N/A   Clear
4:55 PM 58.1 °F - 27.3 °F 31% 29.91 in 10.0 mi West 15.0 mph 21.9 mph N/A   Clear
5:15 PM 57.4 °F - 27.9 °F 32% 29.91 in 10.0 mi West 11.5 mph 19.6 mph N/A   Clear
5:35 PM 56.8 °F - 27.3 °F 32% 29.91 in 10.0 mi West 9.2 mph 17.3 mph N/A   Clear
5:55 PM 55.4 °F - 28.2 °F 35% 29.92 in 10.0 mi West 9.2 mph - N/A   Clear
6:15 PM 54.9 °F - 28.2 °F 36% 29.92 in 10.0 mi West 8.1 mph 17.3 mph N/A   Clear
6:35 PM 54.0 °F - 28.2 °F 37% 29.93 in 10.0 mi West 6.9 mph - N/A   Clear
6:55 PM 53.6 °F - 27.7 °F 37% 29.93 in 10.0 mi West 6.9 mph - N/A   Clear
7:15 PM 52.5 °F - 27.9 °F 39% 29.93 in 10.0 mi West 6.9 mph - N/A   Clear
7:35 PM 52.2 °F - 28.0 °F 39% 29.94 in 10.0 mi West 5.8 mph - N/A   Clear
7:55 PM 51.3 °F - 28.0 °F 41% 29.94 in 10.0 mi West 6.9 mph - N/A   Clear
8:15 PM 50.9 °F - 27.5 °F 40% 29.95 in 10.0 mi West 5.8 mph - N/A   Clear
8:35 PM 50.0 °F - 27.1 °F 41% 29.95 in 10.0 mi West 6.9 mph - N/A   Clear
8:55 PM 49.5 °F - 26.4 °F 41% 29.95 in 10.0 mi WNW 4.6 mph - N/A   Clear
9:15 PM 49.1 °F - 25.7 °F 40% 29.96 in 10.0 mi West 4.6 mph - N/A   Clear
9:35 PM 49.3 °F - 24.8 °F 38% 29.96 in 10.0 mi WNW 6.9 mph - N/A   Clear
9:55 PM 49.1 °F - 24.8 °F 39% 29.96 in 10.0 mi WNW 6.9 mph - N/A   Clear
10:15 PM 48.4 °F - 25.2 °F 40% 29.96 in 10.0 mi West 3.5 mph - N/A   Clear
10:35 PM 47.7 °F - 24.8 °F 41% 29.97 in 10.0 mi West 4.6 mph - N/A   Clear
10:55 PM 46.4 °F 44.3 °F 25.0 °F 43% 29.97 in 10.0 mi West 4.6 mph - N/A   Clear
11:15 PM 45.7 °F 43.4 °F 25.0 °F 44% 29.98 in 10.0 mi West 4.6 mph - N/A   Clear
11:35 PM 44.6 °F 43.1 °F 25.3 °F 47% 29.98 in 10.0 mi West 3.5 mph - 0.01 in   Clear
11:55 PM 43.3 °F 41.7 °F 25.7 °F 50% 29.98 in 10.0 mi WNW 3.5 mph - 0.01 in   Clear